sensor_id;sensor_type;location;lat;lon;timestamp;P1;durP1;ratioP1;P2;durP2;ratioP2
20379;SDS011;10349;48.666;8.948;2022-09-24T00:01:09;7.57;;;6.83;;
20379;SDS011;10349;48.666;8.948;2022-09-24T00:03:40;9.67;;;7.80;;
20379;SDS011;10349;48.666;8.948;2022-09-24T00:06:09;9.37;;;7.63;;
20379;SDS011;10349;48.666;8.948;2022-09-24T00:08:38;8.57;;;7.73;;
20379;SDS011;10349;48.666;8.948;2022-09-24T00:11:05;6.53;;;5.97;;
20379;SDS011;10349;48.666;8.948;2022-09-24T00:13:32;8.40;;;7.63;;
20379;SDS011;10349;48.666;8.948;2022-09-24T00:16:03;7.73;;;7.00;;
20379;SDS011;10349;48.666;8.948;2022-09-24T00:18:31;9.00;;;8.10;;
20379;SDS011;10349;48.666;8.948;2022-09-24T00:20:58;10.57;;;7.50;;
20379;SDS011;10349;48.666;8.948;2022-09-24T00:23:23;8.27;;;7.50;;
20379;SDS011;10349;48.666;8.948;2022-09-24T00:25:49;9.43;;;8.07;;
20379;SDS011;10349;48.666;8.948;2022-09-24T00:28:33;11.00;;;7.47;;
20379;SDS011;10349;48.666;8.948;2022-09-24T00:31:02;7.20;;;6.70;;
20379;SDS011;10349;48.666;8.948;2022-09-24T00:33:31;8.10;;;7.30;;
20379;SDS011;10349;48.666;8.948;2022-09-24T00:36:02;12.23;;;7.30;;
20379;SDS011;10349;48.666;8.948;2022-09-24T00:38:32;9.17;;;7.43;;
20379;SDS011;10349;48.666;8.948;2022-09-24T00:40:58;8.60;;;7.70;;
20379;SDS011;10349;48.666;8.948;2022-09-24T00:48:45;7.90;;;6.70;;
20379;SDS011;10349;48.666;8.948;2022-09-24T00:51:14;8.03;;;7.23;;
20379;SDS011;10349;48.666;8.948;2022-09-24T00:53:43;18.23;;;6.90;;
20379;SDS011;10349;48.666;8.948;2022-09-24T00:56:11;7.43;;;6.73;;
20379;SDS011;10349;48.666;8.948;2022-09-24T00:58:40;6.90;;;6.30;;
20379;SDS011;10349;48.666;8.948;2022-09-24T01:01:11;7.60;;;6.90;;
20379;SDS011;10349;48.666;8.948;2022-09-24T01:03:38;8.43;;;7.00;;
20379;SDS011;10349;48.666;8.948;2022-09-24T01:06:09;11.33;;;7.17;;
20379;SDS011;10349;48.666;8.948;2022-09-24T01:08:35;8.60;;;6.70;;
20379;SDS011;10349;48.666;8.948;2022-09-24T01:21:43;7.70;;;7.07;;
20379;SDS011;10349;48.666;8.948;2022-09-24T01:27:21;7.03;;;6.10;;
20379;SDS011;10349;48.666;8.948;2022-09-24T01:30:08;7.43;;;6.83;;
20379;SDS011;10349;48.666;8.948;2022-09-24T01:32:45;10.70;;;7.40;;
20379;SDS011;10349;48.666;8.948;2022-09-24T01:35:18;6.97;;;6.37;;
20379;SDS011;10349;48.666;8.948;2022-09-24T01:37:52;7.73;;;7.03;;
20379;SDS011;10349;48.666;8.948;2022-09-24T01:40:23;6.63;;;6.03;;
20379;SDS011;10349;48.666;8.948;2022-09-24T01:42:51;7.30;;;6.67;;
20379;SDS011;10349;48.666;8.948;2022-09-24T01:45:19;10.40;;;7.33;;
20379;SDS011;10349;48.666;8.948;2022-09-24T01:47:45;7.73;;;7.03;;
20379;SDS011;10349;48.666;8.948;2022-09-24T01:50:12;7.53;;;6.90;;
20379;SDS011;10349;48.666;8.948;2022-09-24T01:52:56;9.03;;;7.27;;
20379;SDS011;10349;48.666;8.948;2022-09-24T01:55:25;8.30;;;7.50;;
20379;SDS011;10349;48.666;8.948;2022-09-24T01:57:55;7.83;;;7.10;;
20379;SDS011;10349;48.666;8.948;2022-09-24T02:00:31;8.23;;;7.50;;
20379;SDS011;10349;48.666;8.948;2022-09-24T02:03:10;7.57;;;6.87;;
20379;SDS011;10349;48.666;8.948;2022-09-24T02:08:21;7.63;;;6.93;;
20379;SDS011;10349;48.666;8.948;2022-09-24T02:10:54;7.90;;;7.13;;
20379;SDS011;10349;48.666;8.948;2022-09-24T02:13:21;6.90;;;6.40;;
20379;SDS011;10349;48.666;8.948;2022-09-24T02:15:50;8.60;;;7.27;;
20379;SDS011;10349;48.666;8.948;2022-09-24T02:18:20;10.30;;;7.27;;
20379;SDS011;10349;48.666;8.948;2022-09-24T02:20:49;10.03;;;8.33;;
20379;SDS011;10349;48.666;8.948;2022-09-24T02:23:16;8.27;;;7.43;;
20379;SDS011;10349;48.666;8.948;2022-09-24T02:25:51;10.07;;;8.13;;
20379;SDS011;10349;48.666;8.948;2022-09-24T02:28:21;8.87;;;7.97;;
20379;SDS011;10349;48.666;8.948;2022-09-24T02:30:52;10.10;;;7.27;;
20379;SDS011;10349;48.666;8.948;2022-09-24T02:33:40;8.40;;;7.70;;
20379;SDS011;10349;48.666;8.948;2022-09-24T02:36:27;9.37;;;8.40;;
20379;SDS011;10349;48.666;8.948;2022-09-24T02:38:53;8.03;;;7.23;;
20379;SDS011;10349;48.666;8.948;2022-09-24T02:41:20;9.60;;;7.80;;
20379;SDS011;10349;48.666;8.948;2022-09-24T02:43:48;9.70;;;8.70;;
20379;SDS011;10349;48.666;8.948;2022-09-24T02:46:14;14.33;;;8.20;;
20379;SDS011;10349;48.666;8.948;2022-09-24T02:48:40;9.53;;;8.30;;
20379;SDS011;10349;48.666;8.948;2022-09-24T02:51:06;7.90;;;7.30;;
20379;SDS011;10349;48.666;8.948;2022-09-24T02:53:32;9.03;;;7.83;;
20379;SDS011;10349;48.666;8.948;2022-09-24T02:55:58;9.80;;;8.17;;
20379;SDS011;10349;48.666;8.948;2022-09-24T02:58:27;8.13;;;7.33;;
20379;SDS011;10349;48.666;8.948;2022-09-24T03:00:53;8.50;;;7.70;;
20379;SDS011;10349;48.666;8.948;2022-09-24T03:03:22;8.50;;;7.70;;
20379;SDS011;10349;48.666;8.948;2022-09-24T03:05:49;8.40;;;7.60;;
20379;SDS011;10349;48.666;8.948;2022-09-24T03:08:17;9.23;;;8.27;;
20379;SDS011;10349;48.666;8.948;2022-09-24T03:10:44;7.60;;;6.80;;
20379;SDS011;10349;48.666;8.948;2022-09-24T03:13:11;8.87;;;7.97;;
20379;SDS011;10349;48.666;8.948;2022-09-24T03:15:36;7.43;;;6.80;;
20379;SDS011;10349;48.666;8.948;2022-09-24T03:18:02;7.23;;;6.60;;
20379;SDS011;10349;48.666;8.948;2022-09-24T03:20:28;8.80;;;8.00;;
20379;SDS011;10349;48.666;8.948;2022-09-24T03:22:53;8.57;;;7.50;;
20379;SDS011;10349;48.666;8.948;2022-09-24T03:25:19;7.90;;;7.20;;
20379;SDS011;10349;48.666;8.948;2022-09-24T03:27:45;8.90;;;7.73;;
20379;SDS011;10349;48.666;8.948;2022-09-24T03:30:11;7.77;;;7.03;;
20379;SDS011;10349;48.666;8.948;2022-09-24T03:32:56;7.70;;;7.00;;
20379;SDS011;10349;48.666;8.948;2022-09-24T03:35:22;7.33;;;6.70;;
20379;SDS011;10349;48.666;8.948;2022-09-24T03:37:48;8.00;;;7.30;;
20379;SDS011;10349;48.666;8.948;2022-09-24T03:40:13;10.70;;;7.97;;
20379;SDS011;10349;48.666;8.948;2022-09-24T03:42:39;10.20;;;7.57;;
20379;SDS011;10349;48.666;8.948;2022-09-24T03:45:05;11.97;;;8.20;;
20379;SDS011;10349;48.666;8.948;2022-09-24T03:47:31;9.03;;;6.77;;
20379;SDS011;10349;48.666;8.948;2022-09-24T03:49:57;8.03;;;7.33;;
20379;SDS011;10349;48.666;8.948;2022-09-24T03:52:23;11.33;;;7.23;;
20379;SDS011;10349;48.666;8.948;2022-09-24T03:54:50;10.57;;;8.50;;
20379;SDS011;10349;48.666;8.948;2022-09-24T03:57:16;9.90;;;8.87;;
20379;SDS011;10349;48.666;8.948;2022-09-24T03:59:42;10.40;;;9.30;;
20379;SDS011;10349;48.666;8.948;2022-09-24T04:02:09;13.73;;;8.90;;
20379;SDS011;10349;48.666;8.948;2022-09-24T04:04:35;12.43;;;9.97;;
20379;SDS011;10349;48.666;8.948;2022-09-24T04:07:01;13.47;;;10.30;;
20379;SDS011;10349;48.666;8.948;2022-09-24T04:09:27;10.57;;;9.57;;
20379;SDS011;10349;48.666;8.948;2022-09-24T04:11:52;10.47;;;9.43;;
20379;SDS011;10349;48.666;8.948;2022-09-24T04:14:18;11.27;;;8.77;;
20379;SDS011;10349;48.666;8.948;2022-09-24T04:16:45;11.40;;;10.10;;
20379;SDS011;10349;48.666;8.948;2022-09-24T04:19:11;11.90;;;9.57;;
20379;SDS011;10349;48.666;8.948;2022-09-24T04:21:40;13.90;;;10.50;;
20379;SDS011;10349;48.666;8.948;2022-09-24T04:24:06;11.13;;;9.40;;
20379;SDS011;10349;48.666;8.948;2022-09-24T04:26:32;14.13;;;10.37;;
20379;SDS011;10349;48.666;8.948;2022-09-24T04:28:58;12.93;;;9.03;;
20379;SDS011;10349;48.666;8.948;2022-09-24T04:31:24;13.80;;;10.20;;
20379;SDS011;10349;48.666;8.948;2022-09-24T04:33:51;11.07;;;9.50;;
20379;SDS011;10349;48.666;8.948;2022-09-24T04:36:17;10.20;;;8.67;;
20379;SDS011;10349;48.666;8.948;2022-09-24T04:38:43;9.83;;;8.40;;
20379;SDS011;10349;48.666;8.948;2022-09-24T04:41:10;8.77;;;7.87;;
20379;SDS011;10349;48.666;8.948;2022-09-24T04:43:36;10.10;;;7.97;;
20379;SDS011;10349;48.666;8.948;2022-09-24T04:46:02;13.00;;;8.30;;
20379;SDS011;10349;48.666;8.948;2022-09-24T04:48:28;9.43;;;8.40;;
20379;SDS011;10349;48.666;8.948;2022-09-24T04:50:54;12.00;;;8.70;;
20379;SDS011;10349;48.666;8.948;2022-09-24T04:53:20;12.30;;;8.83;;
20379;SDS011;10349;48.666;8.948;2022-09-24T04:55:47;13.60;;;9.37;;
20379;SDS011;10349;48.666;8.948;2022-09-24T04:58:13;11.17;;;9.90;;
20379;SDS011;10349;48.666;8.948;2022-09-24T05:00:39;12.87;;;10.47;;
20379;SDS011;10349;48.666;8.948;2022-09-24T05:03:07;19.87;;;11.10;;
20379;SDS011;10349;48.666;8.948;2022-09-24T05:05:33;11.47;;;10.00;;
20379;SDS011;10349;48.666;8.948;2022-09-24T05:08:00;13.43;;;11.27;;
20379;SDS011;10349;48.666;8.948;2022-09-24T05:10:26;13.13;;;10.00;;
20379;SDS011;10349;48.666;8.948;2022-09-24T05:12:53;11.03;;;9.97;;
20379;SDS011;10349;48.666;8.948;2022-09-24T05:15:19;12.40;;;10.87;;
20379;SDS011;10349;48.666;8.948;2022-09-24T05:17:45;16.20;;;11.27;;
20379;SDS011;10349;48.666;8.948;2022-09-24T05:20:11;18.23;;;11.40;;
20379;SDS011;10349;48.666;8.948;2022-09-24T05:22:41;18.70;;;12.23;;
20379;SDS011;10349;48.666;8.948;2022-09-24T05:25:08;15.70;;;12.57;;
20379;SDS011;10349;48.666;8.948;2022-09-24T05:27:34;13.00;;;11.00;;
20379;SDS011;10349;48.666;8.948;2022-09-24T05:30:00;16.30;;;11.03;;
20379;SDS011;10349;48.666;8.948;2022-09-24T05:32:26;18.13;;;13.07;;
20379;SDS011;10349;48.666;8.948;2022-09-24T05:34:52;15.87;;;11.97;;
20379;SDS011;10349;48.666;8.948;2022-09-24T05:37:18;15.67;;;12.13;;
20379;SDS011;10349;48.666;8.948;2022-09-24T05:39:44;15.17;;;12.50;;
20379;SDS011;10349;48.666;8.948;2022-09-24T05:42:10;16.60;;;12.90;;
20379;SDS011;10349;48.666;8.948;2022-09-24T05:44:38;16.77;;;12.73;;
20379;SDS011;10349;48.666;8.948;2022-09-24T05:47:04;17.43;;;12.73;;
20379;SDS011;10349;48.666;8.948;2022-09-24T05:49:30;17.00;;;12.80;;
20379;SDS011;10349;48.666;8.948;2022-09-24T05:51:56;16.60;;;11.70;;
20379;SDS011;10349;48.666;8.948;2022-09-24T05:54:21;12.50;;;10.43;;
20379;SDS011;10349;48.666;8.948;2022-09-24T05:56:47;16.00;;;13.27;;
20379;SDS011;10349;48.666;8.948;2022-09-24T05:59:12;15.87;;;13.20;;
20379;SDS011;10349;48.666;8.948;2022-09-24T06:01:38;18.47;;;14.33;;
20379;SDS011;10349;48.666;8.948;2022-09-24T06:04:04;19.07;;;13.90;;
20379;SDS011;10349;48.666;8.948;2022-09-24T06:06:29;16.63;;;11.63;;
20379;SDS011;10349;48.666;8.948;2022-09-24T06:08:55;16.07;;;11.80;;
20379;SDS011;10349;48.666;8.948;2022-09-24T06:11:21;17.97;;;14.17;;
20379;SDS011;10349;48.666;8.948;2022-09-24T06:13:47;16.67;;;12.90;;
20379;SDS011;10349;48.666;8.948;2022-09-24T06:16:13;19.63;;;13.17;;
20379;SDS011;10349;48.666;8.948;2022-09-24T06:18:40;15.37;;;11.93;;
20379;SDS011;10349;48.666;8.948;2022-09-24T06:21:08;17.83;;;12.87;;
20379;SDS011;10349;48.666;8.948;2022-09-24T06:23:36;19.57;;;12.87;;
20379;SDS011;10349;48.666;8.948;2022-09-24T06:26:03;18.63;;;12.57;;
20379;SDS011;10349;48.666;8.948;2022-09-24T06:28:29;31.07;;;14.40;;
20379;SDS011;10349;48.666;8.948;2022-09-24T06:30:58;18.93;;;13.27;;
20379;SDS011;10349;48.666;8.948;2022-09-24T06:33:24;14.23;;;12.40;;
20379;SDS011;10349;48.666;8.948;2022-09-24T06:35:50;15.83;;;13.60;;
20379;SDS011;10349;48.666;8.948;2022-09-24T06:38:16;14.73;;;11.97;;
20379;SDS011;10349;48.666;8.948;2022-09-24T06:40:43;14.17;;;11.93;;
20379;SDS011;10349;48.666;8.948;2022-09-24T06:43:10;13.17;;;11.27;;
20379;SDS011;10349;48.666;8.948;2022-09-24T06:45:37;14.00;;;11.30;;
20379;SDS011;10349;48.666;8.948;2022-09-24T06:48:04;18.17;;;12.13;;
20379;SDS011;10349;48.666;8.948;2022-09-24T06:50:30;16.20;;;11.67;;
20379;SDS011;10349;48.666;8.948;2022-09-24T06:52:58;13.00;;;11.70;;
20379;SDS011;10349;48.666;8.948;2022-09-24T06:55:24;12.83;;;11.53;;
20379;SDS011;10349;48.666;8.948;2022-09-24T06:58:00;13.57;;;10.83;;
20379;SDS011;10349;48.666;8.948;2022-09-24T07:00:27;13.27;;;11.97;;
20379;SDS011;10349;48.666;8.948;2022-09-24T07:02:52;24.13;;;11.10;;
20379;SDS011;10349;48.666;8.948;2022-09-24T07:05:18;13.30;;;11.90;;
20379;SDS011;10349;48.666;8.948;2022-09-24T07:07:43;12.00;;;10.27;;
20379;SDS011;10349;48.666;8.948;2022-09-24T07:10:09;14.40;;;11.07;;
20379;SDS011;10349;48.666;8.948;2022-09-24T07:12:35;15.63;;;12.50;;
20379;SDS011;10349;48.666;8.948;2022-09-24T07:15:01;15.73;;;12.40;;
20379;SDS011;10349;48.666;8.948;2022-09-24T07:17:27;15.23;;;11.70;;
20379;SDS011;10349;48.666;8.948;2022-09-24T07:19:53;12.47;;;11.10;;
20379;SDS011;10349;48.666;8.948;2022-09-24T07:22:19;16.53;;;12.47;;
20379;SDS011;10349;48.666;8.948;2022-09-24T07:24:46;12.57;;;10.93;;
20379;SDS011;10349;48.666;8.948;2022-09-24T07:27:12;13.17;;;11.60;;
20379;SDS011;10349;48.666;8.948;2022-09-24T07:29:39;12.10;;;10.80;;
20379;SDS011;10349;48.666;8.948;2022-09-24T07:32:05;16.33;;;11.33;;
20379;SDS011;10349;48.666;8.948;2022-09-24T07:34:30;16.33;;;12.20;;
20379;SDS011;10349;48.666;8.948;2022-09-24T07:37:05;14.63;;;12.43;;
20379;SDS011;10349;48.666;8.948;2022-09-24T07:39:31;11.50;;;10.33;;
20379;SDS011;10349;48.666;8.948;2022-09-24T07:41:57;13.00;;;10.67;;
20379;SDS011;10349;48.666;8.948;2022-09-24T07:44:25;13.03;;;10.93;;
20379;SDS011;10349;48.666;8.948;2022-09-24T07:46:51;13.77;;;10.43;;
20379;SDS011;10349;48.666;8.948;2022-09-24T07:49:17;18.50;;;11.80;;
20379;SDS011;10349;48.666;8.948;2022-09-24T07:51:43;11.80;;;10.60;;
20379;SDS011;10349;48.666;8.948;2022-09-24T07:54:09;13.93;;;12.17;;
20379;SDS011;10349;48.666;8.948;2022-09-24T07:56:35;14.17;;;10.53;;
20379;SDS011;10349;48.666;8.948;2022-09-24T07:59:02;13.30;;;10.17;;
20379;SDS011;10349;48.666;8.948;2022-09-24T08:01:30;15.07;;;10.50;;
20379;SDS011;10349;48.666;8.948;2022-09-24T08:03:56;16.27;;;11.23;;
20379;SDS011;10349;48.666;8.948;2022-09-24T08:06:23;15.20;;;10.80;;
20379;SDS011;10349;48.666;8.948;2022-09-24T08:08:49;11.83;;;10.50;;
20379;SDS011;10349;48.666;8.948;2022-09-24T08:11:17;12.70;;;10.60;;
20379;SDS011;10349;48.666;8.948;2022-09-24T08:13:44;11.37;;;10.27;;
20379;SDS011;10349;48.666;8.948;2022-09-24T08:16:10;13.47;;;10.40;;
20379;SDS011;10349;48.666;8.948;2022-09-24T08:18:36;11.47;;;10.37;;
20379;SDS011;10349;48.666;8.948;2022-09-24T08:21:05;12.77;;;10.47;;
20379;SDS011;10349;48.666;8.948;2022-09-24T08:23:33;12.10;;;10.50;;
20379;SDS011;10349;48.666;8.948;2022-09-24T08:26:00;13.53;;;10.13;;
20379;SDS011;10349;48.666;8.948;2022-09-24T08:28:26;12.77;;;9.60;;
20379;SDS011;10349;48.666;8.948;2022-09-24T08:30:56;14.00;;;10.00;;
20379;SDS011;10349;48.666;8.948;2022-09-24T08:33:23;13.70;;;10.53;;
20379;SDS011;10349;48.666;8.948;2022-09-24T08:35:48;14.80;;;10.57;;
20379;SDS011;10349;48.666;8.948;2022-09-24T08:38:14;13.23;;;9.90;;
20379;SDS011;10349;48.666;8.948;2022-09-24T08:40:44;16.30;;;10.37;;
20379;SDS011;10349;48.666;8.948;2022-09-24T08:44:01;12.30;;;11.07;;
20379;SDS011;10349;48.666;8.948;2022-09-24T08:46:15;11.63;;;9.40;;
20379;SDS011;10349;48.666;8.948;2022-09-24T08:49:09;9.50;;;8.47;;
20379;SDS011;10349;48.666;8.948;2022-09-24T08:51:42;10.60;;;8.70;;
20379;SDS011;10349;48.666;8.948;2022-09-24T08:54:18;8.40;;;7.60;;
20379;SDS011;10349;48.666;8.948;2022-09-24T08:56:44;10.07;;;8.47;;
20379;SDS011;10349;48.666;8.948;2022-09-24T08:59:18;14.93;;;9.00;;
20379;SDS011;10349;48.666;8.948;2022-09-24T09:04:27;10.37;;;8.50;;
20379;SDS011;10349;48.666;8.948;2022-09-24T09:07:05;14.33;;;8.17;;
20379;SDS011;10349;48.666;8.948;2022-09-24T09:09:49;9.00;;;8.10;;
20379;SDS011;10349;48.666;8.948;2022-09-24T09:12:47;11.20;;;8.30;;
20379;SDS011;10349;48.666;8.948;2022-09-24T09:15:19;9.13;;;8.27;;
20379;SDS011;10349;48.666;8.948;2022-09-24T09:17:50;13.80;;;9.23;;
20379;SDS011;10349;48.666;8.948;2022-09-24T09:22:56;12.53;;;8.53;;
20379;SDS011;10349;48.666;8.948;2022-09-24T09:25:31;8.90;;;8.00;;
20379;SDS011;10349;48.666;8.948;2022-09-24T09:28:06;9.43;;;8.10;;
20379;SDS011;10349;48.666;8.948;2022-09-24T09:30:45;10.67;;;8.17;;
20379;SDS011;10349;48.666;8.948;2022-09-24T09:44:54;8.00;;;6.73;;
20379;SDS011;10349;48.666;8.948;2022-09-24T09:50:07;11.40;;;7.50;;
20379;SDS011;10349;48.666;8.948;2022-09-24T09:52:47;6.63;;;5.83;;
20379;SDS011;10349;48.666;8.948;2022-09-24T09:55:34;7.30;;;6.70;;
20379;SDS011;10349;48.666;8.948;2022-09-24T09:58:16;9.00;;;7.63;;
20379;SDS011;10349;48.666;8.948;2022-09-24T10:00:45;7.97;;;7.17;;
20379;SDS011;10349;48.666;8.948;2022-09-24T10:03:22;8.00;;;6.67;;
20379;SDS011;10349;48.666;8.948;2022-09-24T10:06:01;9.00;;;6.87;;
20379;SDS011;10349;48.666;8.948;2022-09-24T10:08:29;9.27;;;7.33;;
20379;SDS011;10349;48.666;8.948;2022-09-24T10:10:56;8.53;;;6.73;;
20379;SDS011;10349;48.666;8.948;2022-09-24T10:13:23;9.73;;;8.03;;
20379;SDS011;10349;48.666;8.948;2022-09-24T10:15:54;7.33;;;6.67;;
20379;SDS011;10349;48.666;8.948;2022-09-24T10:18:31;9.60;;;8.67;;
20379;SDS011;10349;48.666;8.948;2022-09-24T10:21:23;8.70;;;7.07;;
20379;SDS011;10349;48.666;8.948;2022-09-24T10:23:58;12.00;;;5.70;;
20379;SDS011;10349;48.666;8.948;2022-09-24T10:26:33;9.13;;;6.70;;
20379;SDS011;10349;48.666;8.948;2022-09-24T10:29:03;8.67;;;6.27;;
20379;SDS011;10349;48.666;8.948;2022-09-24T10:31:52;10.50;;;6.17;;
20379;SDS011;10349;48.666;8.948;2022-09-24T10:34:22;6.43;;;5.83;;
20379;SDS011;10349;48.666;8.948;2022-09-24T10:37:00;6.10;;;5.23;;
20379;SDS011;10349;48.666;8.948;2022-09-24T10:39:27;7.10;;;5.80;;
20379;SDS011;10349;48.666;8.948;2022-09-24T10:41:54;6.70;;;6.00;;
20379;SDS011;10349;48.666;8.948;2022-09-24T10:44:21;6.80;;;6.20;;
20379;SDS011;10349;48.666;8.948;2022-09-24T10:46:58;7.10;;;6.50;;
20379;SDS011;10349;48.666;8.948;2022-09-24T10:52:35;11.60;;;8.30;;
20379;SDS011;10349;48.666;8.948;2022-09-24T11:03:12;7.20;;;6.40;;
20379;SDS011;10349;48.666;8.948;2022-09-24T11:08:22;8.07;;;6.93;;
20379;SDS011;10349;48.666;8.948;2022-09-24T11:13:31;7.07;;;6.47;;
20379;SDS011;10349;48.666;8.948;2022-09-24T11:27:58;9.90;;;7.10;;
20379;SDS011;10349;48.666;8.948;2022-09-24T11:31:00;7.30;;;6.60;;
20379;SDS011;10349;48.666;8.948;2022-09-24T11:33:53;8.30;;;7.27;;
20379;SDS011;10349;48.666;8.948;2022-09-24T11:39:33;7.10;;;6.47;;
20379;SDS011;10349;48.666;8.948;2022-09-24T11:47:43;8.27;;;7.37;;
20379;SDS011;10349;48.666;8.948;2022-09-24T11:50:32;8.27;;;6.60;;
20379;SDS011;10349;48.666;8.948;2022-09-24T11:53:05;5.80;;;5.13;;
20379;SDS011;10349;48.666;8.948;2022-09-24T11:55:41;8.60;;;6.30;;
20379;SDS011;10349;48.666;8.948;2022-09-24T11:58:18;8.13;;;6.93;;
20379;SDS011;10349;48.666;8.948;2022-09-24T12:00:53;6.83;;;6.13;;
20379;SDS011;10349;48.666;8.948;2022-09-24T12:03:43;6.97;;;5.43;;
20379;SDS011;10349;48.666;8.948;2022-09-24T12:06:20;8.57;;;6.73;;
20379;SDS011;10349;48.666;8.948;2022-09-24T12:09:00;6.03;;;5.63;;
20379;SDS011;10349;48.666;8.948;2022-09-24T12:11:49;6.73;;;6.03;;
20379;SDS011;10349;48.666;8.948;2022-09-24T12:14:25;6.60;;;6.00;;
20379;SDS011;10349;48.666;8.948;2022-09-24T12:16:57;6.40;;;5.80;;
20379;SDS011;10349;48.666;8.948;2022-09-24T12:22:32;7.67;;;6.13;;
20379;SDS011;10349;48.666;8.948;2022-09-24T12:25:00;6.50;;;5.90;;
20379;SDS011;10349;48.666;8.948;2022-09-24T12:27:29;6.83;;;6.13;;
20379;SDS011;10349;48.666;8.948;2022-09-24T12:30:04;6.50;;;5.87;;
20379;SDS011;10349;48.666;8.948;2022-09-24T12:38:18;3.67;;;3.37;;
20379;SDS011;10349;48.666;8.948;2022-09-24T12:43:58;3.70;;;3.40;;
20379;SDS011;10349;48.666;8.948;2022-09-24T12:46:43;3.37;;;3.07;;
20379;SDS011;10349;48.666;8.948;2022-09-24T12:51:50;3.87;;;3.57;;
20379;SDS011;10349;48.666;8.948;2022-09-24T12:54:29;3.47;;;3.27;;
20379;SDS011;10349;48.666;8.948;2022-09-24T12:59:58;4.20;;;3.90;;
20379;SDS011;10349;48.666;8.948;2022-09-24T13:02:46;5.33;;;4.90;;
20379;SDS011;10349;48.666;8.948;2022-09-24T13:07:57;4.50;;;4.20;;
20379;SDS011;10349;48.666;8.948;2022-09-24T13:10:25;4.77;;;4.47;;
20379;SDS011;10349;48.666;8.948;2022-09-24T13:12:52;6.57;;;4.90;;
20379;SDS011;10349;48.666;8.948;2022-09-24T13:17:46;4.13;;;3.83;;
20379;SDS011;10349;48.666;8.948;2022-09-24T13:20:16;7.03;;;5.13;;
20379;SDS011;10349;48.666;8.948;2022-09-24T13:22:55;5.10;;;4.70;;
20379;SDS011;10349;48.666;8.948;2022-09-24T13:25:22;4.43;;;4.13;;
20379;SDS011;10349;48.666;8.948;2022-09-24T13:27:56;5.00;;;4.60;;
20379;SDS011;10349;48.666;8.948;2022-09-24T13:30:31;6.60;;;3.97;;
20379;SDS011;10349;48.666;8.948;2022-09-24T13:44:41;4.10;;;3.80;;
20379;SDS011;10349;48.666;8.948;2022-09-24T13:52:44;4.40;;;4.00;;
20379;SDS011;10349;48.666;8.948;2022-09-24T13:55:16;3.63;;;3.30;;
20379;SDS011;10349;48.666;8.948;2022-09-24T13:57:47;3.57;;;3.37;;
20379;SDS011;10349;48.666;8.948;2022-09-24T14:02:54;3.90;;;3.60;;
20379;SDS011;10349;48.666;8.948;2022-09-24T14:05:24;4.27;;;3.63;;
20379;SDS011;10349;48.666;8.948;2022-09-24T14:07:51;4.30;;;4.00;;
20379;SDS011;10349;48.666;8.948;2022-09-24T14:10:19;4.77;;;4.47;;
20379;SDS011;10349;48.666;8.948;2022-09-24T14:13:05;6.63;;;4.03;;
20379;SDS011;10349;48.666;8.948;2022-09-24T14:15:49;3.50;;;3.30;;
20379;SDS011;10349;48.666;8.948;2022-09-24T14:18:23;3.87;;;3.57;;
20379;SDS011;10349;48.666;8.948;2022-09-24T14:21:03;4.50;;;4.10;;
20379;SDS011;10349;48.666;8.948;2022-09-24T14:29:02;3.43;;;3.23;;
20379;SDS011;10349;48.666;8.948;2022-09-24T14:31:43;3.90;;;3.57;;
20379;SDS011;10349;48.666;8.948;2022-09-24T14:34:33;3.83;;;3.60;;
20379;SDS011;10349;48.666;8.948;2022-09-24T14:37:20;4.27;;;3.90;;
20379;SDS011;10349;48.666;8.948;2022-09-24T14:39:55;3.80;;;3.60;;
20379;SDS011;10349;48.666;8.948;2022-09-24T14:42:27;3.03;;;2.83;;
20379;SDS011;10349;48.666;8.948;2022-09-24T14:45:02;5.43;;;3.87;;
20379;SDS011;10349;48.666;8.948;2022-09-24T14:47:33;3.87;;;3.57;;
20379;SDS011;10349;48.666;8.948;2022-09-24T14:50:00;5.53;;;4.40;;
20379;SDS011;10349;48.666;8.948;2022-09-24T14:52:35;3.97;;;3.67;;
20379;SDS011;10349;48.666;8.948;2022-09-24T14:57:44;3.40;;;3.20;;
20379;SDS011;10349;48.666;8.948;2022-09-24T15:00:18;3.57;;;3.27;;
20379;SDS011;10349;48.666;8.948;2022-09-24T15:02:56;3.60;;;3.20;;
20379;SDS011;10349;48.666;8.948;2022-09-24T15:05:26;3.87;;;3.50;;
20379;SDS011;10349;48.666;8.948;2022-09-24T15:07:53;3.43;;;3.13;;
20379;SDS011;10349;48.666;8.948;2022-09-24T15:10:55;4.50;;;4.10;;
20379;SDS011;10349;48.666;8.948;2022-09-24T15:13:37;3.80;;;3.60;;
20379;SDS011;10349;48.666;8.948;2022-09-24T15:16:04;4.60;;;3.80;;
20379;SDS011;10349;48.666;8.948;2022-09-24T15:21:32;3.90;;;3.60;;
20379;SDS011;10349;48.666;8.948;2022-09-24T15:23:58;4.10;;;3.77;;
20379;SDS011;10349;48.666;8.948;2022-09-24T15:26:25;4.20;;;3.17;;
20379;SDS011;10349;48.666;8.948;2022-09-24T15:28:55;4.50;;;3.20;;
20379;SDS011;10349;48.666;8.948;2022-09-24T15:31:24;3.43;;;3.23;;
20379;SDS011;10349;48.666;8.948;2022-09-24T15:33:50;4.00;;;3.73;;
20379;SDS011;10349;48.666;8.948;2022-09-24T15:36:16;4.70;;;4.30;;
20379;SDS011;10349;48.666;8.948;2022-09-24T15:38:48;4.57;;;4.17;;
20379;SDS011;10349;48.666;8.948;2022-09-24T15:41:15;3.70;;;3.40;;
20379;SDS011;10349;48.666;8.948;2022-09-24T15:43:41;4.33;;;4.03;;
20379;SDS011;10349;48.666;8.948;2022-09-24T15:46:07;5.30;;;4.77;;
20379;SDS011;10349;48.666;8.948;2022-09-24T15:48:33;4.33;;;3.93;;
20379;SDS011;10349;48.666;8.948;2022-09-24T15:50:59;5.10;;;4.33;;
20379;SDS011;10349;48.666;8.948;2022-09-24T15:53:26;4.97;;;4.17;;
20379;SDS011;10349;48.666;8.948;2022-09-24T15:55:55;5.03;;;4.53;;
20379;SDS011;10349;48.666;8.948;2022-09-24T15:58:25;4.33;;;4.00;;
20379;SDS011;10349;48.666;8.948;2022-09-24T16:00:51;4.33;;;4.00;;
20379;SDS011;10349;48.666;8.948;2022-09-24T16:03:27;4.67;;;4.27;;
20379;SDS011;10349;48.666;8.948;2022-09-24T16:05:54;4.37;;;3.70;;
20379;SDS011;10349;48.666;8.948;2022-09-24T16:08:21;3.77;;;3.47;;
20379;SDS011;10349;48.666;8.948;2022-09-24T16:10:47;4.50;;;4.20;;
20379;SDS011;10349;48.666;8.948;2022-09-24T16:13:14;4.03;;;3.73;;
20379;SDS011;10349;48.666;8.948;2022-09-24T16:15:40;4.00;;;3.60;;
20379;SDS011;10349;48.666;8.948;2022-09-24T16:18:06;3.80;;;3.60;;
20379;SDS011;10349;48.666;8.948;2022-09-24T16:20:36;5.70;;;3.87;;
20379;SDS011;10349;48.666;8.948;2022-09-24T16:23:03;4.13;;;3.70;;
20379;SDS011;10349;48.666;8.948;2022-09-24T16:25:28;4.00;;;3.70;;
20379;SDS011;10349;48.666;8.948;2022-09-24T16:27:54;4.10;;;3.80;;
20379;SDS011;10349;48.666;8.948;2022-09-24T16:30:22;8.40;;;4.00;;
20379;SDS011;10349;48.666;8.948;2022-09-24T16:32:48;3.20;;;3.00;;
20379;SDS011;10349;48.666;8.948;2022-09-24T16:35:14;5.00;;;3.80;;
20379;SDS011;10349;48.666;8.948;2022-09-24T16:37:40;3.73;;;3.53;;
20379;SDS011;10349;48.666;8.948;2022-09-24T16:40:06;4.60;;;4.30;;
20379;SDS011;10349;48.666;8.948;2022-09-24T16:42:32;4.20;;;3.90;;
20379;SDS011;10349;48.666;8.948;2022-09-24T16:44:58;5.47;;;5.07;;
20379;SDS011;10349;48.666;8.948;2022-09-24T16:47:24;3.57;;;3.37;;
20379;SDS011;10349;48.666;8.948;2022-09-24T16:49:49;4.97;;;4.57;;
20379;SDS011;10349;48.666;8.948;2022-09-24T16:52:15;3.90;;;3.60;;
20379;SDS011;10349;48.666;8.948;2022-09-24T16:54:40;3.80;;;3.50;;
20379;SDS011;10349;48.666;8.948;2022-09-24T16:57:06;5.03;;;4.63;;
20379;SDS011;10349;48.666;8.948;2022-09-24T16:59:32;6.47;;;5.87;;
20379;SDS011;10349;48.666;8.948;2022-09-24T17:01:58;6.47;;;5.23;;
20379;SDS011;10349;48.666;8.948;2022-09-24T17:04:24;5.73;;;4.30;;
20379;SDS011;10349;48.666;8.948;2022-09-24T17:06:54;4.20;;;3.90;;